Karnes City, TX (78118)

2:23 PM CDT on July 24, 2014 (GMT -0500)
Karnes County (KTXKARNE2) Elev 381 ft | 28.88 °N, 97.86 °W | Change Station

Current weather conditions updated 3 seconds ago

Partly Cloudy
Partly Cloudy
91.6 °F
Feels Like 99 °F
N
4.9
Wind Variable Wind from South
Gusts 6.0 mph

Today is forecast to be Cooler than yesterday.

Today
High -- | Low -- °F
--% Chance of Precip.
Yesterday
High -- | Low -- °F
Precip. -- in
6:48 AM 8:27 PM
Waning Crescent, 4% visible
Pressure 29.97 in
Visibility 10.0 miles
Clouds Scattered Clouds 6000 ft
Heat Index 99 °F
Dew Point 71 °F
Humidity 52%
Rainfall 0.00 in
Snow Depth Not available.
UV 10 out of 12
Pollen 4.20 out of 12
Air Quality Not available.
Flu Activity Not available.
METAR KBEA 241920Z AUTO 06006KT 10SM SCT060 36/18 A2997 RMK AO2 T03620183

More Conditions Fewer Conditions

Pressure 29.97 in
Visibility 10.0 miles
Clouds Scattered Clouds 6000 ft
Heat Index 99 °F
Dew Point 71 °F
Humidity 52%
Rainfall 0.00 in
Snow Depth Not available.
UV 10 out of 12
Pollen 4.20 out of 12
Air Quality Not available.
Flu Activity Not available.
METAR KBEA 241920Z AUTO 06006KT 10SM SCT060 36/18 A2997 RMK AO2 T03620183

More Conditions Fewer Conditions

10-Day Weather Forecast

Almanac

Astronomy

Jul. 24, 2014 Rise Set
Actual Time 6:48 AM CDT 8:27 PM CDT
Civil Twilight 6:22 AM CDT 8:53 PM CDT
Nautical Twilight 5:50 AM CDT 9:25 PM CDT
Astronomical Twilight 5:17 AM CDT 9:57 PM CDT
Moon 4:55 AM CDT 6:46 PM CDT
Length of Visible Light 14h 31m
Length of Day
13h 39m
Tomorrow will be 1m 7s shorter.
Waning Crescent, 4% of the Moon is Illuminated
Today
Waning Crescent
Jul 26
New
Aug 3
First Quarter
Aug 10
Full
Aug 17
Last Quarter

Today's Extremes

State Highs State Lows

Community

WunderPhotos

Upload Photos

1,737,094 photos uploaded!

Nearby

Snow Depth

Station Depth Elevation
No new snow has been reported.

Earthquake Activity

City Distance Mag. Time & Date
No recent earthquake activity has been reported nearby.
Minimum magnitude displayed is 2.5.

Coastal Water Temperatures

Place Temperature
No Stations Reporting

Nearby Weather Stations

Station Location Temp. Heat Index Dew Point Humidity Wind Precip. Elev Updated Type
Karnes County, Karnes City, TX 91.6 °F 99 °F 71 °F 52% South  at  4.9 mph 0.00 in / hr 381 ft 2:23 PM CDT Rapid Fire
CR-303, Runge, TX 94.1 °F 102 °F 72 °F 49% ENE  at  7.8 mph - / hr 331 ft 2:11 PM CDT Normal
New Davy, TX, Yorktown, TX 83.0 °F 94 °F 79 °F 88% NW  at  0.0 mph 0.00 in / hr 442 ft 11:05 AM CDT Normal
810 Hy Koopmann Rd., Yorktown, TX 90.4 °F 99 °F 73 °F 57% NE  at  1.0 mph 0.00 in / hr 440 ft 2:20 PM CDT Normal
Wilderness Resort Ranch, McCoy, TX 92.5 °F 103 °F 74 °F 55% NE  at  4.0 mph 0.00 in / hr 282 ft 2:22 PM CDT Rapid Fire
VFW Rd, Yorktown, TX 93.1 °F 100 °F 71 °F 49% ESE  at  5.0 mph 0.00 in / hr 344 ft 2:22 PM CDT Normal

Show More Stations Show Fewer Stations